Time;durP1;ratioP1;P1;durP2;ratioP2;P2;SDS_P1;SDS_P2;PMS_P1;PMS_P2;Temp;Humidity;BMP_temperature;BMP_pressure;BME280_temperature;BME280_humidity;BME280_pressure;Samples;Min_cycle;Max_cycle;Signal;HPM_P1;HPM_P2
2022/12/31 00:00:11;;;;;;;9.85;3.22;;;13.80;99.90;14.00;99971.00;;;;342652;28;91756;-94
2022/12/31 00:00:23;;;;;;;10.00;3.05;;;13.80;99.90;14.00;99975.00;;;;341679;28;83597;-94
2022/12/31 00:00:37;;;;;;;6.82;3.25;;;13.80;99.90;14.00;99969.00;;;;342632;28;92491;-95
2022/12/31 00:00:49;;;;;;;5.53;2.97;;;13.80;99.90;13.80;99972.00;;;;340250;28;83467;-95
2022/12/31 00:01:02;;;;;;;5.03;2.60;;;13.80;99.90;13.80;99970.00;;;;344214;28;88421;-94
2022/12/31 00:01:15;;;;;;;7.35;3.10;;;13.80;99.90;13.80;99966.00;;;;341733;28;83072;-95
2022/12/31 00:01:27;;;;;;;7.15;3.08;;;13.80;99.90;13.80;99968.00;;;;343139;28;89347;-94
2022/12/31 00:01:39;;;;;;;5.80;2.85;;;13.80;99.90;13.70;99972.00;;;;341618;28;83608;-94
2022/12/31 00:01:51;;;;;;;4.05;2.47;;;13.80;99.90;13.80;99981.00;;;;342609;28;87483;-95
2022/12/31 00:02:03;;;;;;;4.22;2.65;;;13.80;99.90;13.90;99974.00;;;;344725;28;83314;-94
2022/12/31 00:02:15;;;;;;;5.38;2.92;;;13.80;99.90;13.80;99970.00;;;;341213;28;88742;-94
2022/12/31 00:02:27;;;;;;;6.75;3.25;;;13.80;99.90;13.60;99972.00;;;;343046;28;84429;-94
2022/12/31 00:02:39;;;;;;;7.03;3.30;;;13.80;99.90;13.80;99971.00;;;;342676;28;90011;-94
2022/12/31 00:02:51;;;;;;;6.00;3.42;;;13.70;99.90;13.90;99968.00;;;;345174;28;82358;-94
2022/12/31 00:03:05;;;;;;;5.60;3.05;;;13.70;99.90;13.90;99975.00;;;;342867;28;89640;-94
2022/12/31 00:03:17;;;;;;;4.97;2.70;;;13.70;99.90;13.70;99967.00;;;;344642;28;83374;-94
2022/12/31 00:03:29;;;;;;;4.90;2.90;;;13.70;99.90;13.70;99972.00;;;;343937;28;92379;-94
2022/12/31 00:03:43;;;;;;;6.10;2.90;;;13.70;99.90;13.60;99974.00;;;;341450;28;83785;-93
2022/12/31 00:03:55;;;;;;;6.78;2.67;;;13.70;99.90;13.70;99977.00;;;;341398;28;89707;-94
2022/12/31 00:04:06;;;;;;;6.18;2.78;;;13.70;99.90;13.60;99972.00;;;;343316;28;83336;-95
2022/12/31 00:04:19;;;;;;;5.93;2.80;;;13.70;99.90;13.60;99977.00;;;;340156;28;87377;-95
2022/12/31 00:04:30;;;;;;;5.82;2.80;;;13.70;99.90;13.60;99972.00;;;;340641;28;83420;-94
2022/12/31 00:04:42;;;;;;;6.57;2.63;;;13.70;99.90;13.60;99983.00;;;;341517;28;89731;-94
2022/12/31 00:04:54;;;;;;;6.63;2.67;;;13.70;99.90;13.70;99973.00;;;;341840;28;82525;-96
2022/12/31 00:05:07;;;;;;;6.55;2.95;;;13.60;99.90;13.70;99979.00;;;;345912;28;89262;-94
2022/12/31 00:05:19;;;;;;;6.40;3.00;;;13.60;99.90;13.70;99971.00;;;;344484;28;83585;-95
2022/12/31 00:05:31;;;;;;;5.95;3.15;;;13.60;99.90;13.80;99977.00;;;;340684;28;88524;-93
2022/12/31 00:05:43;;;;;;;6.25;2.92;;;13.60;99.90;13.70;99975.00;;;;342094;28;83479;-94
2022/12/31 00:05:55;;;;;;;6.18;2.90;;;13.60;99.90;13.60;99972.00;;;;341804;28;88652;-95
2022/12/31 00:06:30;;;;;;;5.28;2.75;;;13.60;99.90;13.60;99976.00;;;;343592;28;82326;-94
2022/12/31 00:06:42;;;;;;;7.80;3.60;;;13.60;99.90;13.70;99982.00;;;;342942;28;91081;-94
2022/12/31 00:06:54;;;;;;;5.47;3.15;;;13.70;99.90;13.70;99981.00;;;;343176;28;83266;-94
2022/12/31 00:07:06;;;;;;;5.03;2.50;;;13.60;99.90;13.80;99975.00;;;;339115;28;88421;-94
2022/12/31 00:07:18;;;;;;;6.13;2.55;;;13.60;99.90;13.90;99980.00;;;;343094;28;83501;-94
2022/12/31 00:07:30;;;;;;;6.72;3.00;;;13.60;99.90;14.00;99971.00;;;;341754;28;90352;-94
2022/12/31 00:07:41;;;;;;;7.63;3.47;;;13.70;99.90;13.80;99969.00;;;;344876;28;82714;-95
2022/12/31 00:07:52;;;;;;;6.60;3.38;;;13.70;99.90;13.70;99975.00;;;;343305;28;86449;-95
2022/12/31 00:08:05;;;;;;;5.70;2.95;;;13.70;99.90;13.80;99969.00;;;;346063;28;83492;-95
2022/12/31 00:08:16;;;;;;;5.97;2.75;;;13.70;99.90;13.80;99977.00;;;;342766;28;91307;-95
2022/12/31 00:08:28;;;;;;;7.57;3.05;;;13.70;99.90;13.70;99977.00;;;;343541;28;82498;-94
2022/12/31 00:08:40;;;;;;;9.18;3.10;;;13.70;99.90;13.60;99976.00;;;;341437;28;88759;-94
2022/12/31 00:08:54;;;;;;;9.38;3.13;;;13.70;99.90;13.70;99972.00;;;;342269;28;82683;-94
2022/12/31 00:09:06;;;;;;;6.47;3.05;;;13.70;99.90;13.70;99980.00;;;;341449;28;90345;-94
2022/12/31 00:09:18;;;;;;;6.32;3.35;;;13.70;99.90;13.80;99971.00;;;;346023;28;83821;-95
2022/12/31 00:09:30;;;;;;;6.70;3.20;;;13.70;99.90;13.80;99969.00;;;;340041;28;90558;-92
2022/12/31 00:09:42;;;;;;;6.00;2.88;;;13.70;99.90;13.70;99970.00;;;;342110;28;82507;-94
2022/12/31 00:09:54;;;;;;;5.53;2.83;;;13.70;99.90;13.80;99966.00;;;;343197;28;90221;-94
2022/12/31 00:10:06;;;;;;;6.22;3.03;;;13.70;99.90;13.70;99966.00;;;;343511;28;83390;-95
2022/12/31 00:10:18;;;;;;;6.65;3.20;;;13.70;99.90;13.70;99968.00;;;;342824;28;91602;-94
2022/12/31 00:10:32;;;;;;;5.93;3.13;;;13.60;99.90;13.70;99962.00;;;;344593;28;83680;-94
2022/12/31 00:10:45;;;;;;;5.85;3.25;;;13.60;99.90;13.70;99968.00;;;;342873;28;89281;-95
2022/12/31 00:10:56;;;;;;;5.40;3.05;;;13.60;99.90;13.80;99969.00;;;;347075;28;83295;-94
2022/12/31 00:11:08;;;;;;;4.30;3.00;;;13.60;99.90;13.90;99969.00;;;;345731;28;87655;-94
2022/12/31 00:11:21;;;;;;;5.45;3.20;;;13.60;99.90;13.80;99966.00;;;;343268;28;84221;-94
2022/12/31 00:11:35;;;;;;;4.88;3.03;;;13.70;99.90;13.80;99964.00;;;;342749;28;89600;-93
2022/12/31 00:11:47;;;;;;;4.07;2.80;;;13.70;99.90;13.90;99966.00;;;;344343;28;84024;-94
2022/12/31 00:11:59;;;;;;;4.78;2.83;;;13.70;99.90;13.90;99965.00;;;;344050;28;90274;-94
2022/12/31 00:12:10;;;;;;;4.85;2.88;;;13.70;99.90;13.90;99963.00;;;;344681;28;82249;-93
2022/12/31 00:12:22;;;;;;;5.38;2.65;;;13.70;99.90;13.90;99974.00;;;;341361;28;90439;-94
2022/12/31 00:12:34;;;;;;;5.15;2.55;;;13.70;99.90;14.00;99973.00;;;;343450;28;82529;-94
2022/12/31 00:12:46;;;;;;;5.65;2.58;;;13.70;99.90;14.00;99953.00;;;;344164;28;91947;-94
2022/12/31 00:12:58;;;;;;;5.18;2.85;;;13.70;99.90;13.90;99969.00;;;;343131;28;82655;-95
2022/12/31 00:13:11;;;;;;;6.13;3.55;;;13.70;99.90;13.90;99964.00;;;;341601;28;89865;-94
2022/12/31 00:13:23;;;;;;;7.18;3.67;;;13.70;99.90;13.90;99967.00;;;;344348;28;83734;-94
2022/12/31 00:13:35;;;;;;;6.32;3.03;;;13.70;99.90;14.00;99968.00;;;;342878;28;90382;-93
2022/12/31 00:13:47;;;;;;;5.82;2.60;;;13.70;99.90;14.00;99968.00;;;;344744;28;83427;-94
2022/12/31 00:14:00;;;;;;;5.72;2.72;;;13.70;99.90;14.00;99961.00;;;;345622;28;89877;-94
2022/12/31 00:14:12;;;;;;;6.20;2.95;;;13.70;99.90;14.00;99963.00;;;;345814;28;82433;-94
2022/12/31 00:14:24;;;;;;;5.70;2.80;;;13.70;99.90;14.00;99964.00;;;;344145;28;89817;-94
2022/12/31 00:14:35;;;;;;;5.35;2.75;;;13.70;99.90;14.00;99964.00;;;;343240;28;83390;-94
2022/12/31 00:14:47;;;;;;;4.63;2.85;;;13.70;99.90;13.80;99957.00;;;;345656;28;89900;-94
2022/12/31 00:14:59;;;;;;;4.97;3.15;;;13.70;99.90;13.70;99952.00;;;;343138;28;83579;-94
2022/12/31 00:15:11;;;;;;;7.50;3.80;;;13.70;99.90;13.70;99961.00;;;;342577;28;91586;-93
2022/12/31 00:15:23;;;;;;;7.18;3.55;;;13.70;99.90;13.80;99954.00;;;;344650;28;83285;-95
2022/12/31 00:15:35;;;;;;;6.45;2.72;;;13.70;99.90;13.90;99965.00;;;;342626;28;91672;-94
2022/12/31 00:15:47;;;;;;;4.82;2.60;;;13.70;99.90;13.80;99960.00;;;;341745;28;83363;-94
2022/12/31 00:16:11;;;;;;;4.55;2.60;;;13.70;99.90;13.80;99956.00;;;;342701;28;89807;-94
2022/12/31 00:16:31;;;;;;;6.93;3.00;;;13.70;99.90;13.80;99964.00;;;;344663;28;82360;-94
2022/12/31 00:16:43;;;;;;;6.95;3.03;;;13.70;99.90;13.80;99958.00;;;;345323;28;92332;-94
2022/12/31 00:16:54;;;;;;;6.20;3.20;;;13.70;99.90;13.70;99964.00;;;;341915;28;83205;-94
2022/12/31 00:17:06;;;;;;;5.53;3.28;;;13.70;99.90;13.60;99963.00;;;;343915;28;92319;-94
2022/12/31 00:17:18;;;;;;;5.55;3.38;;;13.70;99.90;13.70;99959.00;;;;343145;28;83456;-94
2022/12/31 00:17:30;;;;;;;7.50;3.58;;;13.70;99.90;13.70;99957.00;;;;343980;28;90766;-94
2022/12/31 00:17:42;;;;;;;10.13;3.70;;;13.70;99.90;13.80;99956.00;;;;345826;28;82801;-94
2022/12/31 00:17:54;;;;;;;8.85;3.08;;;13.70;99.90;13.80;99957.00;;;;345059;28;88436;-94
2022/12/31 00:18:06;;;;;;;4.88;2.80;;;13.70;99.90;13.80;99936.00;;;;344428;28;83634;-94
2022/12/31 00:18:18;;;;;;;4.45;3.03;;;13.70;99.90;13.80;99942.00;;;;341546;28;89776;-94
2022/12/31 00:18:30;;;;;;;4.20;2.90;;;13.70;99.90;13.80;99946.00;;;;344539;28;84635;-94
2022/12/31 00:18:44;;;;;;;3.88;2.60;;;13.70;99.90;13.90;99956.00;;;;342806;28;90438;-95
2022/12/31 00:18:58;;;;;;;3.80;2.60;;;13.70;99.90;13.90;99946.00;;;;345713;28;83927;-94
2022/12/31 00:19:10;;;;;;;6.18;3.28;;;13.70;99.90;13.90;99950.00;;;;341315;28;91069;-94
2022/12/31 00:19:22;;;;;;;5.95;3.25;;;13.70;99.90;13.90;99954.00;;;;345948;28;82806;-94
2022/12/31 00:19:34;;;;;;;5.35;2.90;;;13.70;99.90;13.80;99949.00;;;;340659;28;87131;-95
2022/12/31 00:19:46;;;;;;;5.55;2.90;;;13.70;99.90;13.90;99954.00;;;;344644;28;82264;-94
2022/12/31 00:19:58;;;;;;;5.75;2.83;;;13.70;99.90;13.90;99947.00;;;;341556;28;88804;-94
2022/12/31 00:20:10;;;;;;;7.13;2.75;;;13.70;99.90;13.80;99948.00;;;;345607;28;82566;-94
2022/12/31 00:20:22;;;;;;;7.72;2.95;;;13.70;99.90;13.80;99949.00;;;;345492;28;90698;-94
2022/12/31 00:20:37;;;;;;;7.25;3.00;;;13.60;99.90;13.80;99947.00;;;;344433;28;82280;-95
2022/12/31 00:20:49;;;;;;;6.75;3.08;;;13.60;99.90;13.90;99960.00;;;;340120;28;88492;-94
2022/12/31 00:21:05;;;;;;;6.07;3.00;;;13.60;99.90;13.80;99949.00;;;;342935;28;82682;-95
2022/12/31 00:21:18;;;;;;;5.47;2.72;;;13.60;99.90;13.70;99956.00;;;;344265;28;90065;-94
2022/12/31 00:21:31;;;;;;;5.03;3.08;;;13.60;99.90;13.70;99952.00;;;;341857;28;82457;-94
2022/12/31 00:21:43;;;;;;;6.00;3.30;;;13.60;99.90;13.60;99946.00;;;;343902;28;88926;-95
2022/12/31 00:21:55;;;;;;;5.32;2.80;;;13.60;99.90;13.50;99954.00;;;;344397;28;82852;-94
2022/12/31 00:22:06;;;;;;;5.20;2.78;;;13.60;99.90;13.60;99955.00;;;;345606;28;87866;-94
2022/12/31 00:22:18;;;;;;;5.57;2.92;;;13.50;99.90;13.60;99955.00;;;;343134;28;83599;-95
2022/12/31 00:22:30;;;;;;;6.25;3.15;;;13.50;99.90;13.60;99954.00;;;;342653;28;90012;-93
2022/12/31 00:22:42;;;;;;;5.85;2.80;;;13.50;99.90;13.50;99948.00;;;;344322;28;83467;-94
2022/12/31 00:22:54;;;;;;;4.53;2.20;;;13.50;99.90;13.60;99942.00;;;;342575;28;88359;-95
2022/12/31 00:23:07;;;;;;;4.50;2.28;;;13.50;99.90;13.60;99955.00;;;;347445;28;82277;-93
2022/12/31 00:23:19;;;;;;;4.13;2.40;;;13.50;99.90;13.50;99943.00;;;;344287;28;89431;-94
2022/12/31 00:23:31;;;;;;;5.57;2.50;;;13.50;99.90;13.50;99944.00;;;;345740;28;83536;-94
2022/12/31 00:23:43;;;;;;;7.95;3.15;;;13.50;99.90;13.60;99946.00;;;;342792;28;87925;-94
2022/12/31 00:23:55;;;;;;;9.25;3.33;;;13.50;99.90;13.50;99939.00;;;;344415;28;83289;-94
2022/12/31 00:24:07;;;;;;;6.82;3.30;;;13.50;99.90;13.50;99940.00;;;;341091;28;90401;-94
2022/12/31 00:24:19;;;;;;;6.18;3.38;;;13.50;99.90;13.60;99935.00;;;;343045;28;83532;-94
2022/12/31 00:24:32;;;;;;;6.22;3.05;;;13.50;99.90;13.70;99946.00;;;;342726;28;88549;-95
2022/12/31 00:24:43;;;;;;;5.07;2.97;;;13.50;99.90;13.70;99942.00;;;;344551;28;83627;-94
2022/12/31 00:24:55;;;;;;;4.82;3.00;;;13.50;99.90;13.70;99939.00;;;;341334;28;89481;-94
2022/12/31 00:25:08;;;;;;;4.57;2.72;;;13.50;99.90;13.70;99944.00;;;;341866;28;83460;-94
2022/12/31 00:25:20;;;;;;;5.10;2.92;;;13.50;99.90;13.60;99938.00;;;;345646;28;90087;-94
2022/12/31 00:25:34;;;;;;;4.93;2.75;;;13.50;99.90;13.70;99938.00;;;;342938;28;83587;-94
2022/12/31 00:25:46;;;;;;;4.25;2.45;;;13.50;99.90;13.70;99944.00;;;;341417;28;88827;-94
2022/12/31 00:26:10;;;;;;;5.60;2.33;;;13.50;99.90;13.80;99942.00;;;;343253;28;83272;-95
2022/12/31 00:26:26;;;;;;;6.75;3.20;;;13.50;99.90;13.80;99935.00;;;;342811;28;88843;-93
2022/12/31 00:26:38;;;;;;;6.13;3.08;;;13.50;99.90;13.70;99933.00;;;;344344;28;83114;-94
2022/12/31 00:26:50;;;;;;;5.93;2.75;;;13.50;99.90;13.70;99928.00;;;;342844;28;89745;-94
2022/12/31 00:27:02;;;;;;;6.28;2.88;;;13.50;99.90;13.60;99921.00;;;;345705;28;83351;-94
2022/12/31 00:27:15;;;;;;;5.57;2.78;;;13.50;99.90;13.60;99931.00;;;;343020;28;88660;-94
2022/12/31 00:27:30;;;;;;;4.40;2.60;;;13.50;99.90;13.60;99929.00;;;;344194;28;82554;-94
2022/12/31 00:27:42;;;;;;;5.07;2.63;;;13.50;99.90;13.70;99926.00;;;;341019;28;90618;-94
2022/12/31 00:27:54;;;;;;;4.97;2.58;;;13.50;99.90;13.60;99929.00;;;;343269;28;83189;-94
2022/12/31 00:28:06;;;;;;;4.40;2.53;;;13.50;99.90;13.60;99932.00;;;;342692;28;89886;-94
2022/12/31 00:28:18;;;;;;;6.40;2.67;;;13.50;99.90;13.60;99930.00;;;;344594;28;83567;-94
2022/12/31 00:28:30;;;;;;;7.43;2.92;;;13.50;99.90;13.80;99927.00;;;;340140;28;88730;-94
2022/12/31 00:28:43;;;;;;;7.45;2.53;;;13.50;99.90;13.90;99931.00;;;;344250;28;83860;-94
2022/12/31 00:28:56;;;;;;;6.80;2.42;;;13.50;99.90;13.80;99925.00;;;;344161;28;89364;-94
2022/12/31 00:29:09;;;;;;;5.32;2.47;;;13.50;99.90;13.90;99928.00;;;;341849;28;82407;-94
2022/12/31 00:29:21;;;;;;;4.60;2.55;;;13.60;99.90;14.00;99933.00;;;;342908;28;91319;-94
2022/12/31 00:29:32;;;;;;;6.20;2.70;;;13.60;99.90;13.80;99916.00;;;;345739;28;82371;-95
2022/12/31 00:29:44;;;;;;;7.47;2.58;;;13.60;99.90;13.80;99924.00;;;;342737;28;88701;-94
2022/12/31 00:29:56;;;;;;;6.50;2.38;;;13.60;99.90;13.80;99915.00;;;;341938;28;82358;-94
2022/12/31 00:30:15;;;;;;;4.30;2.28;;;13.60;99.90;13.80;99927.00;;;;343778;28;90463;-94
2022/12/31 00:30:27;;;;;;;4.32;2.20;;;13.60;99.90;13.90;99924.00;;;;344622;28;82491;-94
2022/12/31 00:30:39;;;;;;;5.13;2.10;;;13.60;99.90;13.80;99922.00;;;;341434;28;90347;-94
2022/12/31 00:30:50;;;;;;;5.53;2.15;;;13.60;99.90;13.80;99922.00;;;;345645;28;83309;-94
2022/12/31 00:31:04;;;;;;;5.32;2.53;;;13.60;99.90;13.90;99933.00;;;;341964;28;88589;-94
2022/12/31 00:31:21;;;;;;;5.60;3.00;;;13.70;99.90;13.80;99925.00;;;;344341;28;83325;-94
2022/12/31 00:31:35;;;;;;;5.05;3.08;;;13.70;99.90;13.90;99930.00;;;;344252;28;88727;-94
2022/12/31 00:31:47;;;;;;;5.05;2.90;;;13.70;99.90;13.90;99926.00;;;;343191;28;83257;-94
2022/12/31 00:31:59;;;;;;;4.63;2.83;;;13.70;99.90;13.80;99926.00;;;;342860;28;87617;-94
2022/12/31 00:32:11;;;;;;;5.10;2.65;;;13.70;99.90;13.90;99917.00;;;;343103;28;82548;-94
2022/12/31 00:32:23;;;;;;;5.13;3.03;;;13.70;99.90;14.00;99923.00;;;;344264;28;88690;-94
2022/12/31 00:32:35;;;;;;;5.25;2.92;;;13.70;99.90;13.80;99921.00;;;;344340;28;83178;-94
2022/12/31 00:32:47;;;;;;;5.95;3.00;;;13.70;99.90;13.90;99921.00;;;;341145;28;92851;-94
2022/12/31 00:32:59;;;;;;;5.82;2.92;;;13.70;99.90;13.80;99916.00;;;;342645;28;83566;-94
2022/12/31 00:33:11;;;;;;;4.82;2.90;;;13.70;99.90;13.80;99924.00;;;;340114;28;89684;-94
2022/12/31 00:33:23;;;;;;;4.47;2.95;;;13.60;99.90;13.70;99916.00;;;;343277;28;83322;-94
2022/12/31 00:33:35;;;;;;;5.97;3.17;;;13.60;99.90;13.70;99918.00;;;;338725;28;92220;-94
2022/12/31 00:33:46;;;;;;;8.27;3.00;;;13.60;99.90;13.70;99913.00;;;;344223;28;83477;-94
2022/12/31 00:33:58;;;;;;;7.35;2.95;;;13.60;99.90;13.70;99917.00;;;;342537;28;91032;-93
2022/12/31 00:34:10;;;;;;;4.80;2.83;;;13.60;99.90;13.80;99914.00;;;;346008;28;82398;-94
2022/12/31 00:34:22;;;;;;;4.60;2.70;;;13.60;99.90;13.90;99922.00;;;;344313;28;89170;-94
2022/12/31 00:34:34;;;;;;;4.55;2.45;;;13.60;99.90;13.90;99919.00;;;;344219;28;83344;-94
2022/12/31 00:34:46;;;;;;;3.75;2.40;;;13.60;99.90;14.00;99920.00;;;;345497;28;89977;-94
2022/12/31 00:34:58;;;;;;;3.92;2.50;;;13.60;99.90;14.00;99924.00;;;;343032;28;84559;-93
2022/12/31 00:35:10;;;;;;;4.03;2.72;;;13.60;99.90;14.00;99918.00;;;;344264;28;89754;-93
2022/12/31 00:35:22;;;;;;;4.63;2.90;;;13.60;99.90;13.90;99923.00;;;;344352;28;83412;-94
2022/12/31 00:35:35;;;;;;;4.15;2.47;;;13.60;99.90;14.00;99928.00;;;;341242;28;88457;-94
2022/12/31 00:35:47;;;;;;;4.95;3.00;;;13.60;99.90;14.00;99924.00;;;;341793;28;83517;-94
2022/12/31 00:36:15;;;;;;;4.53;3.08;;;13.60;99.90;13.80;99924.00;;;;342953;28;89439;-94
2022/12/31 00:36:35;;;;;;;5.03;2.83;;;13.60;99.90;13.90;99928.00;;;;343203;28;83501;-94
2022/12/31 00:36:47;;;;;;;5.68;2.55;;;13.60;99.90;13.90;99921.00;;;;342504;28;89604;-94
2022/12/31 00:36:59;;;;;;;5.32;2.40;;;13.60;99.90;13.80;99921.00;;;;344502;28;83479;-94
2022/12/31 00:37:11;;;;;;;5.97;2.55;;;13.60;99.90;13.80;99923.00;;;;345632;28;89619;-94
2022/12/31 00:37:23;;;;;;;5.00;2.80;;;13.60;99.90;13.80;99921.00;;;;343315;28;83337;-94
2022/12/31 00:37:35;;;;;;;4.53;2.70;;;13.60;99.90;13.70;99928.00;;;;344080;28;90482;-94
2022/12/31 00:37:46;;;;;;;4.95;2.90;;;13.70;99.90;13.60;99927.00;;;;342948;28;83390;-94
2022/12/31 00:37:58;;;;;;;4.63;2.80;;;13.60;99.90;13.80;99930.00;;;;342820;28;89357;-94
2022/12/31 00:38:10;;;;;;;5.78;2.88;;;13.60;99.90;13.80;99926.00;;;;343106;28;83479;-92
2022/12/31 00:38:22;;;;;;;4.97;2.53;;;13.60;99.90;13.70;99928.00;;;;342586;28;91043;-95
2022/12/31 00:38:35;;;;;;;4.72;2.45;;;13.60;99.90;13.70;99930.00;;;;344450;28;83436;-94
2022/12/31 00:38:48;;;;;;;4.47;2.33;;;13.60;99.90;13.70;99932.00;;;;342674;28;88729;-93
2022/12/31 00:39:01;;;;;;;5.00;2.13;;;13.60;99.90;13.70;99935.00;;;;343189;28;82262;-94
2022/12/31 00:39:13;;;;;;;5.50;2.20;;;13.60;99.90;13.70;99930.00;;;;340019;28;91904;-95
2022/12/31 00:39:25;;;;;;;4.90;2.42;;;13.50;99.90;13.60;99934.00;;;;341965;28;83426;-94
2022/12/31 00:39:36;;;;;;;4.95;2.95;;;13.50;99.90;13.60;99930.00;;;;341225;28;91596;-94
2022/12/31 00:39:48;;;;;;;5.45;3.30;;;13.50;99.90;13.70;99931.00;;;;343280;28;83388;-94
2022/12/31 00:40:00;;;;;;;5.70;2.95;;;13.50;99.90;13.80;99936.00;;;;343806;28;93127;-95
2022/12/31 00:40:13;;;;;;;5.90;3.00;;;13.50;99.90;13.80;99934.00;;;;343221;28;83413;-94
2022/12/31 00:40:25;;;;;;;5.57;2.85;;;13.50;99.90;13.70;99934.00;;;;344008;28;88542;-94
2022/12/31 00:40:37;;;;;;;5.95;2.70;;;13.50;99.90;13.70;99933.00;;;;344632;28;82481;-94
2022/12/31 00:40:49;;;;;;;5.28;2.42;;;13.50;99.90;13.60;99939.00;;;;341458;28;88636;-94
2022/12/31 00:41:01;;;;;;;4.97;2.60;;;13.50;99.90;13.60;99939.00;;;;344133;28;83376;-94
2022/12/31 00:41:13;;;;;;;5.07;2.53;;;13.50;99.90;13.60;99943.00;;;;342783;28;90676;-94
2022/12/31 00:41:25;;;;;;;4.45;2.30;;;13.40;99.90;13.60;99945.00;;;;342885;28;83489;-95
2022/12/31 00:41:37;;;;;;;4.85;2.13;;;13.40;99.90;13.70;99940.00;;;;343792;28;92107;-94
2022/12/31 00:41:49;;;;;;;4.50;2.25;;;13.40;99.90;13.70;99932.00;;;;343310;28;82341;-93
2022/12/31 00:42:01;;;;;;;4.53;2.15;;;13.40;99.90;13.60;99939.00;;;;342010;28;88514;-95
2022/12/31 00:42:13;;;;;;;4.65;1.98;;;13.50;99.90;13.50;99938.00;;;;343369;28;83946;-94
2022/12/31 00:42:25;;;;;;;4.88;2.20;;;13.40;99.90;13.50;99932.00;;;;343029;28;89404;-95
2022/12/31 00:42:37;;;;;;;5.13;2.40;;;13.50;99.90;13.60;99939.00;;;;343306;28;83249;-94
2022/12/31 00:42:49;;;;;;;5.10;2.53;;;13.40;99.90;13.60;99945.00;;;;340237;28;88151;-95
2022/12/31 00:43:00;;;;;;;6.07;2.45;;;13.50;99.90;13.60;99944.00;;;;340928;28;83237;-94
2022/12/31 00:43:12;;;;;;;6.18;2.47;;;13.50;99.90;13.70;99942.00;;;;345597;28;90489;-94
2022/12/31 00:43:24;;;;;;;5.75;2.53;;;13.40;99.90;13.70;99944.00;;;;344644;28;83542;-94
2022/12/31 00:43:36;;;;;;;6.15;2.85;;;13.50;99.90;13.60;99952.00;;;;344551;28;86900;-94
2022/12/31 00:43:48;;;;;;;5.88;2.70;;;13.40;99.90;13.60;99952.00;;;;344734;28;82271;-94
2022/12/31 00:44:00;;;;;;;4.50;2.50;;;13.50;99.90;13.50;99950.00;;;;342681;28;91218;-94
2022/12/31 00:44:12;;;;;;;3.97;2.45;;;13.40;99.90;13.60;99956.00;;;;345968;28;83508;-94
2022/12/31 00:44:24;;;;;;;3.72;2.58;;;13.40;99.90;13.60;99947.00;;;;341708;28;88058;-94
2022/12/31 00:44:36;;;;;;;3.53;2.53;;;13.40;99.90;13.60;99949.00;;;;344546;28;82386;-94
2022/12/31 00:44:48;;;;;;;4.68;2.40;;;13.40;99.90;13.50;99947.00;;;;341686;28;88443;-95
2022/12/31 00:45:00;;;;;;;5.22;2.20;;;13.40;99.90;13.60;99951.00;;;;341922;28;83392;-95
2022/12/31 00:45:12;;;;;;;4.82;2.28;;;13.40;99.90;13.60;99946.00;;;;341519;28;90354;-94
2022/12/31 00:45:24;;;;;;;5.80;2.55;;;13.50;99.90;13.80;99949.00;;;;340682;28;84405;-95
2022/12/31 00:45:36;;;;;;;6.75;2.60;;;13.40;99.90;13.80;99954.00;;;;345716;28;89090;-95
2022/12/31 00:45:48;;;;;;;7.03;2.53;;;13.50;99.90;13.70;99951.00;;;;343420;28;84588;-94
2022/12/31 00:46:00;;;;;;;6.70;2.50;;;13.50;99.90;13.70;99944.00;;;;344306;28;90879;-93
2022/12/31 00:46:12;;;;;;;5.07;2.60;;;13.50;99.90;13.60;99945.00;;;;342181;28;82354;-94
2022/12/31 00:46:24;;;;;;;5.50;2.72;;;13.50;99.90;13.70;99946.00;;;;344391;28;91110;-96
2022/12/31 00:46:36;;;;;;;4.70;2.47;;;13.50;99.90;13.80;99946.00;;;;347326;28;83628;-94
2022/12/31 00:46:47;;;;;;;5.60;2.50;;;13.50;99.90;13.80;99943.00;;;;345102;28;87928;-95
2022/12/31 00:46:59;;;;;;;6.68;2.25;;;13.50;99.90;13.80;99950.00;;;;344717;28;83480;-94
2022/12/31 00:47:11;;;;;;;6.75;2.20;;;13.50;99.90;13.80;99942.00;;;;346930;28;90740;-94
2022/12/31 00:47:23;;;;;;;5.47;2.25;;;13.50;99.90;13.90;99939.00;;;;343600;28;83358;-95
2022/12/31 00:47:35;;;;;;;4.53;2.25;;;13.50;99.90;13.90;99947.00;;;;343072;28;90077;-95
2022/12/31 00:47:47;;;;;;;5.10;2.45;;;13.50;99.90;13.80;99945.00;;;;341684;28;82585;-95
2022/12/31 00:48:00;;;;;;;5.22;2.45;;;13.50;99.90;13.80;99943.00;;;;345635;28;91213;-95
2022/12/31 00:48:11;;;;;;;5.13;2.40;;;13.50;99.90;13.70;99952.00;;;;346069;28;83264;-94
2022/12/31 00:48:23;;;;;;;4.47;2.28;;;13.50;99.90;13.60;99943.00;;;;343141;28;88588;-94
2022/12/31 00:48:37;;;;;;;4.07;2.42;;;13.50;99.90;13.70;99944.00;;;;345054;28;83317;-94
2022/12/31 00:48:49;;;;;;;4.93;2.90;;;13.50;99.90;13.70;99940.00;;;;344545;28;90851;-94
2022/12/31 00:49:01;;;;;;;5.38;3.08;;;13.50;99.90;13.60;99942.00;;;;342005;28;83385;-95
2022/12/31 00:49:13;;;;;;;9.63;2.97;;;13.50;99.90;13.60;99945.00;;;;343054;28;91368;-94
2022/12/31 00:49:25;;;;;;;10.23;2.67;;;13.50;99.90;13.70;99946.00;;;;342175;28;83472;-94
2022/12/31 00:49:37;;;;;;;8.43;2.50;;;13.50;99.90;13.70;99946.00;;;;343021;28;90094;-95
2022/12/31 00:49:48;;;;;;;5.90;2.42;;;13.50;99.90;13.80;99942.00;;;;344654;28;83481;-95
2022/12/31 00:50:00;;;;;;;4.93;2.38;;;13.50;99.90;13.90;99935.00;;;;342924;28;90676;-94
2022/12/31 00:50:12;;;;;;;5.75;2.63;;;13.50;99.90;13.80;99932.00;;;;342203;28;83343;-94
2022/12/31 00:50:24;;;;;;;6.07;2.70;;;13.50;99.90;13.80;99943.00;;;;345946;28;90704;-94
2022/12/31 00:50:36;;;;;;;4.45;2.25;;;13.50;99.90;13.80;99947.00;;;;344695;28;84903;-93
2022/12/31 00:50:48;;;;;;;4.53;2.35;;;13.50;99.90;13.90;99934.00;;;;340536;28;90616;-94
2022/12/31 00:51:01;;;;;;;5.10;2.40;;;13.60;99.90;13.80;99931.00;;;;345921;28;83794;-94
2022/12/31 00:51:15;;;;;;;6.05;2.10;;;13.60;99.90;13.70;99943.00;;;;346970;28;91738;-94
2022/12/31 00:51:27;;;;;;;8.35;2.53;;;13.60;99.90;13.80;99937.00;;;;346099;28;83453;-94
2022/12/31 00:51:39;;;;;;;7.65;2.60;;;13.60;99.90;13.80;99930.00;;;;342797;28;90880;-95
2022/12/31 00:51:51;;;;;;;6.88;2.42;;;13.60;99.90;13.80;99929.00;;;;344470;28;83771;-94
2022/12/31 00:52:03;;;;;;;5.50;2.20;;;13.60;99.90;13.90;99942.00;;;;344188;28;91321;-95
2022/12/31 00:52:17;;;;;;;6.13;2.38;;;13.60;99.90;13.90;99929.00;;;;340409;28;84225;-93
2022/12/31 00:52:28;;;;;;;8.55;2.70;;;13.60;99.90;13.90;99930.00;;;;343094;28;88755;-95
2022/12/31 00:52:40;;;;;;;7.80;2.45;;;13.60;99.90;13.80;99934.00;;;;343259;28;82863;-94
2022/12/31 00:52:52;;;;;;;5.32;2.05;;;13.60;99.90;13.70;99935.00;;;;342703;28;89383;-95
2022/12/31 00:53:04;;;;;;;3.55;1.90;;;13.60;99.90;13.70;99935.00;;;;340756;28;83379;-94
2022/12/31 00:53:17;;;;;;;3.70;2.08;;;13.60;99.90;13.70;99940.00;;;;341760;28;89185;-94
2022/12/31 00:53:29;;;;;;;4.22;2.20;;;13.60;99.90;13.80;99934.00;;;;340694;28;83310;-94
2022/12/31 00:53:41;;;;;;;4.65;2.15;;;13.60;99.90;13.90;99932.00;;;;342707;28;87464;-94
2022/12/31 00:53:54;;;;;;;4.45;2.08;;;13.60;99.90;13.90;99930.00;;;;339484;28;83084;-95
2022/12/31 00:54:07;;;;;;;4.45;2.00;;;13.70;99.90;13.70;99940.00;;;;343052;28;89746;-94
2022/12/31 00:54:19;;;;;;;4.50;2.35;;;13.60;99.90;13.80;99939.00;;;;343629;28;83310;-94
2022/12/31 00:54:31;;;;;;;6.38;2.70;;;13.60;99.90;13.90;99932.00;;;;343124;28;89721;-94
2022/12/31 00:54:43;;;;;;;9.63;2.65;;;13.60;99.90;14.00;99942.00;;;;343332;28;82529;-95
2022/12/31 00:54:56;;;;;;;11.30;2.40;;;13.70;99.90;14.00;99940.00;;;;343132;28;89786;-94
2022/12/31 00:55:08;;;;;;;10.80;2.47;;;13.70;99.90;14.00;99944.00;;;;342005;28;82690;-95
2022/12/31 00:55:20;;;;;;;4.00;2.17;;;13.70;99.90;13.90;99935.00;;;;343135;28;91587;-92
2022/12/31 00:55:32;;;;;;;3.75;2.08;;;13.70;99.90;13.80;99931.00;;;;343304;28;83907;-95
2022/12/31 00:55:44;;;;;;;3.97;2.20;;;13.70;99.90;13.70;99929.00;;;;344466;28;88428;-95
2022/12/31 00:56:17;;;;;;;5.35;2.45;;;13.70;99.90;13.80;99943.00;;;;342245;28;83453;-94
2022/12/31 00:56:30;;;;;;;4.70;2.70;;;13.70;99.90;13.80;99933.00;;;;345669;28;89902;-94
2022/12/31 00:56:41;;;;;;;4.75;2.70;;;13.60;99.90;13.80;99936.00;;;;346242;28;82383;-94